createdAt,value
2018-12-17T00:02:07.247Z,53.77
2018-12-17T00:04:36.792Z,52.15
2018-12-17T00:07:06.641Z,55.90
2018-12-17T00:09:36.620Z,53.00
2018-12-17T00:12:06.330Z,55.93
2018-12-17T00:14:35.886Z,54.03
2018-12-17T00:17:05.551Z,53.10
2018-12-17T00:19:35.156Z,52.30
2018-12-17T00:22:04.968Z,56.48
2018-12-17T00:24:34.620Z,60.90
2018-12-17T00:27:04.267Z,53.37
2018-12-17T00:29:33.807Z,58.07
2018-12-17T00:32:03.384Z,53.73
2018-12-17T00:34:32.999Z,55.70
2018-12-17T00:37:02.520Z,56.40
2018-12-17T00:39:32.065Z,59.43
2018-12-17T00:42:01.637Z,59.10
2018-12-17T00:44:31.234Z,51.40
2018-12-17T00:47:00.816Z,66.77
2018-12-17T00:49:30.341Z,57.90
2018-12-17T00:51:59.898Z,53.70
2018-12-17T00:54:29.872Z,57.60
2018-12-17T00:56:59.480Z,62.07
2018-12-17T00:59:29.208Z,53.28
2018-12-17T01:01:59.306Z,57.80
2018-12-17T01:04:28.955Z,55.80
2018-12-17T01:06:58.683Z,54.93
2018-12-17T01:09:28.376Z,56.47
2018-12-17T01:11:58.080Z,57.67
2018-12-17T01:14:27.848Z,52.40
2018-12-17T01:16:57.508Z,62.27
2018-12-17T01:19:28.079Z,57.23
2018-12-17T01:21:57.757Z,51.17
2018-12-17T01:24:27.358Z,52.40
2018-12-17T01:26:57.021Z,62.40
2018-12-17T01:29:26.690Z,49.80
2018-12-17T01:31:56.276Z,54.97
2018-12-17T01:34:25.932Z,53.47
2018-12-17T01:36:55.771Z,56.00
2018-12-17T01:39:25.420Z,49.33
2018-12-17T01:41:55.016Z,58.03
2018-12-17T01:44:24.740Z,57.07
2018-12-17T01:46:54.301Z,60.95
2018-12-17T01:49:24.332Z,58.60
2018-12-17T01:51:53.844Z,52.23
2018-12-17T01:54:23.474Z,53.60
2018-12-17T01:56:53.084Z,52.73
2018-12-17T01:59:22.651Z,59.80
2018-12-17T02:01:52.696Z,55.23
2018-12-17T02:04:22.400Z,56.80
2018-12-17T02:06:52.111Z,57.83
2018-12-17T02:09:21.641Z,54.27
2018-12-17T02:11:51.215Z,56.17
2018-12-17T02:14:20.751Z,51.02
2018-12-17T02:16:50.263Z,57.83
2018-12-17T02:19:19.888Z,53.77
2018-12-17T02:21:49.550Z,55.20
2018-12-17T02:24:20.103Z,55.98
2018-12-17T02:26:49.743Z,58.08
2018-12-17T02:29:19.299Z,53.50
2018-12-17T02:31:48.854Z,58.03
2018-12-17T02:34:18.404Z,56.27
2018-12-17T02:36:48.009Z,59.33
2018-12-17T02:39:17.537Z,51.93
2018-12-17T02:41:47.052Z,58.03
2018-12-17T02:44:16.823Z,53.30
2018-12-17T02:46:46.303Z,54.80
2018-12-17T02:49:16.172Z,56.43
2018-12-17T02:51:45.790Z,56.27
2018-12-17T02:54:15.361Z,56.17
2018-12-17T02:56:44.952Z,50.20
2018-12-17T02:59:14.605Z,62.10
2018-12-17T03:01:44.277Z,53.50
2018-12-17T03:04:13.816Z,55.12
2018-12-17T03:06:43.496Z,58.63
2018-12-17T03:09:13.135Z,58.50
2018-12-17T03:11:42.685Z,54.97
2018-12-17T03:16:47.187Z,53.70
2018-12-17T03:19:17.167Z,54.40
2018-12-17T03:21:46.817Z,58.73
2018-12-17T03:24:16.512Z,52.30
2018-12-17T03:26:46.111Z,58.27
2018-12-17T03:29:15.640Z,57.07
2018-12-17T03:31:45.481Z,63.83
2018-12-17T03:34:15.249Z,58.27
2018-12-17T03:36:44.763Z,59.93
2018-12-17T03:39:14.406Z,62.20
2018-12-17T03:41:43.920Z,64.00
2018-12-17T03:44:13.453Z,64.83
2018-12-17T03:46:43.034Z,57.17
2018-12-17T03:49:12.566Z,57.27
2018-12-17T03:51:42.297Z,70.27
2018-12-17T03:54:11.931Z,54.97
2018-12-17T03:56:47.026Z,66.10
2018-12-17T03:59:16.648Z,58.47
2018-12-17T04:01:46.196Z,59.43
2018-12-17T04:04:15.878Z,63.63
2018-12-17T04:06:45.450Z,73.70
2018-12-17T04:09:15.064Z,67.33
2018-12-17T04:11:44.678Z,67.87
2018-12-17T04:14:14.277Z,67.92
2018-12-17T04:16:43.876Z,58.50
2018-12-17T04:19:13.521Z,60.57
2018-12-17T04:21:43.230Z,61.15
2018-12-17T04:24:12.798Z,61.10
2018-12-17T04:26:42.354Z,64.15
2018-12-17T04:29:12.064Z,59.97
2018-12-17T04:31:41.647Z,59.57
2018-12-17T04:34:11.164Z,59.40
2018-12-17T04:36:40.748Z,76.07
2018-12-17T04:39:10.334Z,62.35
2018-12-17T04:41:40.015Z,63.53
2018-12-17T04:44:09.610Z,64.37
2018-12-17T04:46:39.168Z,66.00
2018-12-17T04:49:08.842Z,62.40
2018-12-17T04:51:38.336Z,60.50
2018-12-17T04:54:07.932Z,61.87
2018-12-17T04:56:37.450Z,57.67
2018-12-17T04:59:14.403Z,63.33
2018-12-17T05:01:38.734Z,55.40
2018-12-17T05:04:14.429Z,69.62
2018-12-17T05:06:46.520Z,57.05
2018-12-17T05:09:22.787Z,62.53
2018-12-17T05:11:54.610Z,61.00
2018-12-17T05:14:28.054Z,58.93
2018-12-17T05:16:59.084Z,64.05
2018-12-17T05:19:28.685Z,63.97
2018-12-17T05:21:58.289Z,57.33
2018-12-17T05:24:28.620Z,61.58
2018-12-17T05:27:01.526Z,58.20
2018-12-17T05:29:31.109Z,60.40
2018-12-17T05:32:00.789Z,64.92
2018-12-17T05:34:30.413Z,66.23
2018-12-17T05:37:00.005Z,66.93
2018-12-17T05:39:29.612Z,64.73
2018-12-17T05:41:59.089Z,57.10
2018-12-17T05:44:28.708Z,66.50
2018-12-17T05:46:58.353Z,64.33
2018-12-17T05:49:27.846Z,62.00
2018-12-17T05:51:57.467Z,58.15
2018-12-17T05:54:27.057Z,66.47
2018-12-17T05:56:56.573Z,59.70
2018-12-17T05:59:28.728Z,55.30
2018-12-17T06:01:57.780Z,62.58
2018-12-17T06:04:27.340Z,66.77
2018-12-17T06:06:56.956Z,56.33
2018-12-17T06:09:26.533Z,66.57
2018-12-17T06:11:56.182Z,63.23
2018-12-17T06:14:25.672Z,63.23
2018-12-17T06:16:55.292Z,62.53
2018-12-17T06:22:08.653Z,59.88
2018-12-17T06:24:38.238Z,66.67
2018-12-17T06:27:08.631Z,63.30
2018-12-17T06:29:38.079Z,62.08
2018-12-17T06:32:07.599Z,60.23
2018-12-17T06:34:37.098Z,63.20
2018-12-17T06:37:06.664Z,63.13
2018-12-17T06:39:36.330Z,86.72
2018-12-17T06:42:05.847Z,61.73
2018-12-17T06:44:35.309Z,63.27
2018-12-17T06:47:04.865Z,83.60
2018-12-17T06:49:35.527Z,66.80
2018-12-17T06:52:05.192Z,60.10
2018-12-17T06:54:34.799Z,65.67
2018-12-17T06:57:04.352Z,59.03
2018-12-17T06:59:33.909Z,64.70
2018-12-17T07:02:03.720Z,63.17
2018-12-17T07:04:33.224Z,61.80
2018-12-17T07:07:02.805Z,62.00
2018-12-17T07:09:32.337Z,62.60
2018-12-17T07:12:02.980Z,63.03
2018-12-17T07:14:36.447Z,59.20
2018-12-17T07:17:04.880Z,58.50
2018-12-17T07:19:34.440Z,68.43
2018-12-17T07:22:03.995Z,59.93
2018-12-17T07:24:33.752Z,62.58
2018-12-17T07:27:03.495Z,62.43
2018-12-17T07:29:33.713Z,63.40
2018-12-17T07:32:03.225Z,66.50
2018-12-17T07:34:33.112Z,61.10
2018-12-17T07:37:02.694Z,68.22
2018-12-17T07:39:33.021Z,70.57
2018-12-17T07:42:07.894Z,65.70
2018-12-17T07:44:37.455Z,64.70
2018-12-17T07:47:07.663Z,61.80
2018-12-17T07:49:37.275Z,61.10
2018-12-17T07:52:06.872Z,67.37
2018-12-17T07:54:36.327Z,63.73
2018-12-17T07:57:05.818Z,58.97
2018-12-17T07:59:35.731Z,71.50
2018-12-17T08:02:05.335Z,65.40
2018-12-17T08:04:34.955Z,63.10
2018-12-17T08:07:05.356Z,63.57
2018-12-17T08:09:34.944Z,68.60
2018-12-17T08:12:04.515Z,58.73
2018-12-17T08:14:34.074Z,69.50
2018-12-17T08:17:04.627Z,60.30
2018-12-17T08:19:34.117Z,67.97
2018-12-17T08:22:03.692Z,68.13
2018-12-17T08:24:35.370Z,70.23
2018-12-17T08:27:10.690Z,69.20
2018-12-17T08:29:40.283Z,67.40
2018-12-17T08:32:10.200Z,71.23
2018-12-17T08:34:39.924Z,65.60
2018-12-17T08:37:10.574Z,59.57
2018-12-17T08:39:40.120Z,62.37
2018-12-17T08:42:09.981Z,63.13
2018-12-17T08:44:39.729Z,62.00
2018-12-17T08:47:09.229Z,58.57
2018-12-17T08:49:38.835Z,58.57
2018-12-17T08:52:08.568Z,56.30
2018-12-17T08:54:38.107Z,64.70
2018-12-17T08:57:08.380Z,61.47
2018-12-17T08:59:38.549Z,55.60
2018-12-17T09:02:08.152Z,63.40
2018-12-17T09:04:39.029Z,58.27
2018-12-17T09:07:08.627Z,56.30
2018-12-17T09:09:38.078Z,56.00
2018-12-17T09:12:07.736Z,58.80
2018-12-17T09:14:37.203Z,61.60
2018-12-17T09:17:06.684Z,58.90
2018-12-17T09:19:36.552Z,57.13
2018-12-17T09:22:06.400Z,58.87
2018-12-17T09:24:36.077Z,61.20
2018-12-17T09:27:05.660Z,55.73
2018-12-17T09:29:35.408Z,55.33
2018-12-17T09:32:05.234Z,58.13
2018-12-17T09:34:35.300Z,56.60
2018-12-17T09:37:05.138Z,54.97
2018-12-17T09:39:35.233Z,56.47
2018-12-17T09:42:04.728Z,51.43
2018-12-17T09:44:34.231Z,58.63
2018-12-17T09:47:03.766Z,64.63
2018-12-17T09:49:33.613Z,58.00
2018-12-17T09:52:03.091Z,57.27
2018-12-17T09:54:32.722Z,54.57
2018-12-17T09:57:02.302Z,60.43
2018-12-17T09:59:31.920Z,60.57
2018-12-17T10:02:01.401Z,55.73
2018-12-17T10:04:31.157Z,55.70
2018-12-17T10:07:00.681Z,62.07
2018-12-17T10:09:30.583Z,64.90
2018-12-17T10:12:00.261Z,73.77
2018-12-17T10:14:29.845Z,56.47
2018-12-17T10:16:59.467Z,53.90
2018-12-17T10:19:29.707Z,56.30
2018-12-17T10:21:59.191Z,58.67
2018-12-17T10:24:28.671Z,57.07
2018-12-17T10:26:58.360Z,58.33
2018-12-17T10:29:27.894Z,59.30
2018-12-17T10:31:57.609Z,58.93
2018-12-17T10:34:27.091Z,61.23
2018-12-17T10:36:56.779Z,65.80
2018-12-17T10:39:36.368Z,62.90
2018-12-17T10:42:07.396Z,67.53
2018-12-17T10:44:36.991Z,64.93
2018-12-17T10:49:41.195Z,63.20
2018-12-17T10:52:10.725Z,60.80
2018-12-17T10:54:41.332Z,61.80
2018-12-17T10:57:10.960Z,65.03
2018-12-17T10:59:40.483Z,68.73
2018-12-17T11:02:14.011Z,57.00
2018-12-17T11:04:47.059Z,65.20
2018-12-17T11:07:16.650Z,62.80
2018-12-17T11:09:46.453Z,65.87
2018-12-17T11:12:16.033Z,64.67
2018-12-17T11:14:45.507Z,62.03
2018-12-17T11:17:15.164Z,63.47
2018-12-17T11:19:44.672Z,68.20
2018-12-17T11:22:14.268Z,62.83
2018-12-17T11:24:44.079Z,62.07
2018-12-17T11:27:13.726Z,60.13
2018-12-17T11:29:48.939Z,62.87
2018-12-17T11:32:18.429Z,64.87
2018-12-17T11:34:48.448Z,65.53
2018-12-17T11:37:18.116Z,63.63
2018-12-17T11:39:47.810Z,64.97
2018-12-17T11:42:17.492Z,63.30
2018-12-17T11:44:46.951Z,64.90
2018-12-17T11:47:16.602Z,65.63
2018-12-17T11:49:46.059Z,63.40
2018-12-17T11:52:15.563Z,67.37
2018-12-17T11:54:45.061Z,63.70
2018-12-17T11:57:55.649Z,66.50
2018-12-17T12:00:27.236Z,65.10
2018-12-17T12:03:02.572Z,66.70
2018-12-17T12:05:32.096Z,85.53
2018-12-17T12:08:01.623Z,67.50
2018-12-17T12:10:31.126Z,79.80
2018-12-17T12:13:00.647Z,77.23
2018-12-17T12:15:30.112Z,70.80
2018-12-17T12:17:59.694Z,85.20
2018-12-17T12:20:29.329Z,77.30
2018-12-17T12:22:59.077Z,75.40
2018-12-17T12:25:28.771Z,77.30
2018-12-17T12:28:01.732Z,77.53
2018-12-17T12:30:32.071Z,75.30
2018-12-17T12:33:01.578Z,82.13
2018-12-17T12:35:31.170Z,74.53
2018-12-17T12:38:00.906Z,74.90
2018-12-17T12:40:30.455Z,75.60
2018-12-17T12:42:59.960Z,79.30
2018-12-17T12:45:29.578Z,72.83
2018-12-17T12:47:59.071Z,73.53
2018-12-17T12:50:28.544Z,79.83
2018-12-17T12:52:58.868Z,77.40
2018-12-17T12:55:29.783Z,84.50
2018-12-17T12:58:03.615Z,71.53
2018-12-17T13:00:36.796Z,78.20
2018-12-17T13:03:06.490Z,84.90
2018-12-17T13:05:36.350Z,75.57
2018-12-17T13:08:05.886Z,85.63
2018-12-17T13:10:35.653Z,92.27
2018-12-17T13:13:05.294Z,75.17
2018-12-17T13:15:34.728Z,75.33
2018-12-17T13:18:04.414Z,85.97
2018-12-17T13:20:33.891Z,76.80
2018-12-17T13:23:03.467Z,85.50
2018-12-17T13:25:37.106Z,90.13
2018-12-17T13:28:07.303Z,86.70
2018-12-17T13:30:36.839Z,102.07
2018-12-17T13:33:07.209Z,83.90
2018-12-17T13:35:36.678Z,78.97
2018-12-17T13:38:08.169Z,86.03
2018-12-17T13:40:39.166Z,76.80
2018-12-17T13:43:08.806Z,87.57
2018-12-17T13:45:39.067Z,83.93
2018-12-17T13:48:08.760Z,85.13
2018-12-17T13:50:41.440Z,97.60
2018-12-17T13:53:16.252Z,90.77
2018-12-17T13:55:45.751Z,128.37
2018-12-17T13:58:15.332Z,85.83
2018-12-17T14:00:44.932Z,74.73
2018-12-17T14:03:14.476Z,80.30
2018-12-17T14:05:44.069Z,74.40
2018-12-17T14:08:20.302Z,75.57
2018-12-17T14:10:53.871Z,72.03
2018-12-17T14:13:23.770Z,70.90
2018-12-17T14:15:57.358Z,75.40
2018-12-17T14:18:31.987Z,72.47
2018-12-17T14:21:06.869Z,69.97
2018-12-17T14:23:36.997Z,69.93
2018-12-17T14:26:06.836Z,79.87
2018-12-17T14:28:36.541Z,78.90
2018-12-17T14:31:06.179Z,71.93
2018-12-17T14:33:36.091Z,80.83
2018-12-17T14:36:10.915Z,72.73
2018-12-17T14:38:40.571Z,70.50
2018-12-17T14:41:10.111Z,72.10
2018-12-17T14:43:39.744Z,74.73
2018-12-17T14:46:09.420Z,73.37
2018-12-17T14:48:39.006Z,68.63
2018-12-17T14:51:08.509Z,66.53
2018-12-17T14:53:37.972Z,60.13
2018-12-17T14:56:07.433Z,49.10
2018-12-17T14:58:44.232Z,60.40
2018-12-17T15:01:08.476Z,49.50
2018-12-17T15:03:38.076Z,50.03
2018-12-17T15:06:07.603Z,64.23
2018-12-17T15:08:37.132Z,62.90
2018-12-17T15:11:06.622Z,63.40
2018-12-17T15:13:36.634Z,59.60
2018-12-17T15:16:06.356Z,69.87
2018-12-17T15:18:35.900Z,62.27
2018-12-17T15:21:05.469Z,68.87
2018-12-17T15:23:35.094Z,57.60
2018-12-17T15:26:04.604Z,56.23
2018-12-17T15:28:34.166Z,62.23
2018-12-17T15:31:03.745Z,55.20
2018-12-17T15:33:33.234Z,52.73
2018-12-17T15:36:02.723Z,57.07
2018-12-17T15:38:32.251Z,56.73
2018-12-17T15:41:01.817Z,60.40
2018-12-17T15:43:31.367Z,58.93
2018-12-17T15:46:00.880Z,60.93
2018-12-17T15:48:30.377Z,80.90
2018-12-17T15:50:59.880Z,72.57
2018-12-17T15:53:29.545Z,68.20
2018-12-17T15:55:59.168Z,69.53
2018-12-17T15:58:29.045Z,64.37
2018-12-17T16:00:58.516Z,74.47
2018-12-17T16:03:28.021Z,68.80
2018-12-17T16:05:57.586Z,65.03
2018-12-17T16:08:27.156Z,66.60
2018-12-17T16:10:56.649Z,58.43
2018-12-17T16:13:26.180Z,72.03
2018-12-17T16:15:55.795Z,70.60
2018-12-17T16:18:25.364Z,70.03
2018-12-17T16:20:54.873Z,64.50
2018-12-17T16:23:24.722Z,67.93
2018-12-17T16:25:54.573Z,65.57
2018-12-17T16:28:24.076Z,66.83
2018-12-17T16:30:54.152Z,70.10
2018-12-17T16:33:29.717Z,71.10
2018-12-17T16:35:55.348Z,70.07
2018-12-17T16:38:25.365Z,68.27
2018-12-17T16:40:55.000Z,68.97
2018-12-17T16:43:24.827Z,70.33
2018-12-17T16:45:54.324Z,67.50
2018-12-17T16:48:23.784Z,70.13
2018-12-17T16:50:54.204Z,71.67
2018-12-17T16:53:23.671Z,72.37
2018-12-17T16:55:53.952Z,68.77
2018-12-17T16:58:23.479Z,67.80
2018-12-17T17:00:53.068Z,80.00
2018-12-17T17:03:23.020Z,70.00
2018-12-17T17:05:53.874Z,72.50
2018-12-17T17:08:23.404Z,80.23
2018-12-17T17:10:52.918Z,78.00
2018-12-17T17:13:22.555Z,78.43
2018-12-17T17:15:52.586Z,71.50
2018-12-17T17:18:23.003Z,70.27
2018-12-17T17:20:52.679Z,67.10
2018-12-17T17:23:22.364Z,76.20
2018-12-17T17:25:52.040Z,76.47
2018-12-17T17:28:21.590Z,82.33
2018-12-17T17:30:51.177Z,74.20
2018-12-17T17:33:20.751Z,81.77
2018-12-17T17:35:50.555Z,78.10
2018-12-17T17:38:20.181Z,72.20
2018-12-17T17:40:50.413Z,77.93
2018-12-17T17:43:20.146Z,76.53
2018-12-17T17:45:49.746Z,67.93
2018-12-17T17:48:19.360Z,70.87
2018-12-17T17:50:48.978Z,81.07
2018-12-17T17:53:19.150Z,79.47
2018-12-17T17:55:48.757Z,66.77
2018-12-17T17:58:18.317Z,67.27
2018-12-17T18:00:47.876Z,78.00
2018-12-17T18:03:17.500Z,85.50
2018-12-17T18:05:47.713Z,84.63
2018-12-17T18:08:17.314Z,76.73
2018-12-17T18:10:46.847Z,72.87
2018-12-17T18:13:16.420Z,85.83
2018-12-17T18:15:46.072Z,81.93
2018-12-17T18:18:16.478Z,85.20
2018-12-17T18:20:46.254Z,84.23
2018-12-17T18:23:15.840Z,81.43
2018-12-17T18:25:46.077Z,77.90
2018-12-17T18:28:16.029Z,75.13
2018-12-17T18:30:45.502Z,83.73
2018-12-17T18:33:15.026Z,87.83
2018-12-17T18:35:44.658Z,84.20
2018-12-17T18:38:14.209Z,84.13
2018-12-17T18:40:43.789Z,72.97
2018-12-17T18:43:13.315Z,80.90
2018-12-17T18:48:16.236Z,94.60
2018-12-17T18:50:45.902Z,84.87
2018-12-17T18:53:15.415Z,75.70
2018-12-17T18:55:45.131Z,85.90
2018-12-17T18:58:15.322Z,82.77
2018-12-17T19:00:45.036Z,70.37
2018-12-17T19:03:14.690Z,72.83
2018-12-17T19:05:44.373Z,90.80
2018-12-17T19:08:13.942Z,77.30
2018-12-17T19:10:48.997Z,75.20
2018-12-17T19:13:46.831Z,83.37
2018-12-17T19:16:17.098Z,80.80
2018-12-17T19:18:47.232Z,89.63
2018-12-17T19:21:18.520Z,84.73
2018-12-17T19:23:50.972Z,79.77
2018-12-17T19:26:23.792Z,74.00
2018-12-17T19:28:54.211Z,77.23
2018-12-17T19:31:23.801Z,83.67
2018-12-17T19:33:53.352Z,86.53
2018-12-17T19:36:22.893Z,76.97
2018-12-17T19:38:52.427Z,77.43
2018-12-17T19:41:23.929Z,70.33
2018-12-17T19:43:54.192Z,69.20
2018-12-17T19:46:23.729Z,44.87
2018-12-17T19:48:54.657Z,60.57
2018-12-17T19:51:24.375Z,66.10
2018-12-17T19:53:58.622Z,44.50
2018-12-17T19:56:29.124Z,37.80
2018-12-17T19:58:58.712Z,32.20
2018-12-17T20:01:28.348Z,29.83
2018-12-17T20:03:57.953Z,34.40
2018-12-17T20:09:13.519Z,29.20
2018-12-17T20:11:43.144Z,25.17
2018-12-17T20:14:13.489Z,23.87
2018-12-17T20:16:42.995Z,22.20
2018-12-17T20:19:13.444Z,20.70
2018-12-17T20:21:43.078Z,23.27
2018-12-17T20:24:12.609Z,22.43
2018-12-17T20:26:42.124Z,26.70
2018-12-17T20:29:12.632Z,30.67
2018-12-17T20:31:42.331Z,33.43
2018-12-17T20:34:11.911Z,35.57
2018-12-17T20:36:41.456Z,33.80
2018-12-17T20:39:11.146Z,34.90
2018-12-17T20:41:40.781Z,35.03
2018-12-17T20:44:10.585Z,36.70
2018-12-17T20:46:40.197Z,41.37
2018-12-17T20:49:09.677Z,42.10
2018-12-17T20:51:39.297Z,33.70
2018-12-17T20:54:09.877Z,42.77
2018-12-17T20:56:39.371Z,41.07
2018-12-17T20:59:08.857Z,47.33
2018-12-17T21:01:38.550Z,55.47
2018-12-17T21:04:11.067Z,65.23
2018-12-17T21:06:40.656Z,58.53
2018-12-17T21:09:10.550Z,72.03
2018-12-17T21:11:40.194Z,66.67
2018-12-17T21:14:09.845Z,73.07
2018-12-17T21:16:39.410Z,75.67
2018-12-17T21:19:09.020Z,81.33
2018-12-17T21:21:38.648Z,73.47
2018-12-17T21:24:08.280Z,83.77
2018-12-17T21:26:38.275Z,73.13
2018-12-17T21:29:07.885Z,83.07
2018-12-17T21:31:37.672Z,79.60
2018-12-17T21:34:07.437Z,78.57
2018-12-17T21:36:37.138Z,78.13
2018-12-17T21:39:07.769Z,66.50
2018-12-17T21:41:37.425Z,80.70
2018-12-17T21:44:07.033Z,99.57
2018-12-17T21:46:36.597Z,82.83
2018-12-17T21:49:07.033Z,92.07
2018-12-17T21:51:36.700Z,83.40
2018-12-17T21:54:06.345Z,78.40
2018-12-17T21:56:35.926Z,77.73
2018-12-17T21:59:05.595Z,88.00
2018-12-17T22:01:35.110Z,90.80
2018-12-17T22:04:04.663Z,94.50
2018-12-17T22:06:34.328Z,84.83
2018-12-17T22:09:04.530Z,99.77
2018-12-17T22:11:34.180Z,79.77
2018-12-17T22:14:03.875Z,76.93
2018-12-17T22:19:16.645Z,86.97
2018-12-17T22:21:46.313Z,79.73
2018-12-17T22:24:15.946Z,80.77
2018-12-17T22:26:45.519Z,70.47
2018-12-17T22:29:15.133Z,78.83
2018-12-17T22:31:44.780Z,74.83
2018-12-17T22:34:14.498Z,73.83
2018-12-17T22:36:44.242Z,77.80
2018-12-17T22:39:13.900Z,81.83
2018-12-17T22:41:48.973Z,72.17
2018-12-17T22:44:18.503Z,76.43
2018-12-17T22:46:48.109Z,77.43
2018-12-17T22:49:17.659Z,64.23
2018-12-17T22:51:47.256Z,73.53
2018-12-17T22:54:16.819Z,76.83
2018-12-17T22:56:46.447Z,74.40
2018-12-17T22:59:16.013Z,70.03
2018-12-17T23:01:45.753Z,60.40
2018-12-17T23:04:15.259Z,67.63
2018-12-17T23:06:44.775Z,70.73
2018-12-17T23:09:13.079Z,64.07
2018-12-17T23:11:58.966Z,59.10
2018-12-17T23:14:39.607Z,66.90
2018-12-17T23:17:20.262Z,63.30
2018-12-17T23:19:50.151Z,64.10
2018-12-17T23:22:20.343Z,61.73
2018-12-17T23:24:50.027Z,51.77
2018-12-17T23:27:19.566Z,67.20
2018-12-17T23:29:49.044Z,60.90
2018-12-17T23:32:18.628Z,62.13
2018-12-17T23:34:48.370Z,61.50
2018-12-17T23:37:17.943Z,67.17
2018-12-17T23:39:47.476Z,55.17
2018-12-17T23:42:17.008Z,59.37
2018-12-17T23:44:46.685Z,60.57
2018-12-17T23:47:16.243Z,57.27
2018-12-17T23:49:45.849Z,53.90
2018-12-17T23:52:15.460Z,56.80
2018-12-17T23:54:45.008Z,57.60
2018-12-17T23:57:14.588Z,47.93
2018-12-17T23:59:44.988Z,52.83
